sensor_id;sensor_type;location;lat;lon;timestamp;pressure;altitude;pressure_sealevel;temperature
43802;BMP280;29429;51.074;13.764;2023-02-15T00:00:20;101525.38;;;0.57
43802;BMP280;29429;51.074;13.764;2023-02-15T00:02:47;101535.56;;;0.61
43802;BMP280;29429;51.074;13.764;2023-02-15T00:05:14;101540.75;;;0.63
43802;BMP280;29429;51.074;13.764;2023-02-15T00:07:41;101533.44;;;0.54
43802;BMP280;29429;51.074;13.764;2023-02-15T00:10:09;101542.81;;;0.58
43802;BMP280;29429;51.074;13.764;2023-02-15T00:12:36;101539.66;;;0.53
43802;BMP280;29429;51.074;13.764;2023-02-15T00:15:05;101533.94;;;0.46
43802;BMP280;29429;51.074;13.764;2023-02-15T00:17:32;101537.28;;;0.48
43802;BMP280;29429;51.074;13.764;2023-02-15T00:19:59;101529.41;;;0.48
43802;BMP280;29429;51.074;13.764;2023-02-15T00:22:26;101527.44;;;0.52
43802;BMP280;29429;51.074;13.764;2023-02-15T00:24:53;101523.91;;;0.53
43802;BMP280;29429;51.074;13.764;2023-02-15T00:27:20;101522.19;;;0.52
43802;BMP280;29429;51.074;13.764;2023-02-15T00:29:47;101523.91;;;0.53
43802;BMP280;29429;51.074;13.764;2023-02-15T00:32:14;101527.44;;;0.52
43802;BMP280;29429;51.074;13.764;2023-02-15T00:34:41;101520.69;;;0.48
43802;BMP280;29429;51.074;13.764;2023-02-15T00:37:09;101524.16;;;0.48
43802;BMP280;29429;51.074;13.764;2023-02-15T00:39:37;101521.34;;;0.51
43802;BMP280;29429;51.074;13.764;2023-02-15T00:42:05;101521.47;;;0.50
43802;BMP280;29429;51.074;13.764;2023-02-15T00:44:32;101521.47;;;0.50
43802;BMP280;29429;51.074;13.764;2023-02-15T00:46:59;101519.66;;;0.50
43802;BMP280;29429;51.074;13.764;2023-02-15T00:49:26;101525.03;;;0.49
43802;BMP280;29429;51.074;13.764;2023-02-15T00:51:53;101511.34;;;0.44
43802;BMP280;29429;51.074;13.764;2023-02-15T00:54:20;101501.97;;;0.40
43802;BMP280;29429;51.074;13.764;2023-02-15T00:56:49;101512.38;;;0.41
43802;BMP280;29429;51.074;13.764;2023-02-15T00:59:16;101500.28;;;0.39
43802;BMP280;29429;51.074;13.764;2023-02-15T01:01:43;101498.34;;;0.42
43802;BMP280;29429;51.074;13.764;2023-02-15T01:04:11;101499.91;;;0.45
43802;BMP280;29429;51.074;13.764;2023-02-15T01:06:38;101499.69;;;0.48
43802;BMP280;29429;51.074;13.764;2023-02-15T01:09:05;101494.84;;;0.42
43802;BMP280;29429;51.074;13.764;2023-02-15T01:11:32;101492.44;;;0.39
43802;BMP280;29429;51.074;13.764;2023-02-15T01:13:59;101495.44;;;0.33
43802;BMP280;29429;51.074;13.764;2023-02-15T01:16:28;101495.59;;;0.30
43802;BMP280;29429;51.074;13.764;2023-02-15T01:18:55;101485.13;;;0.30
43802;BMP280;29429;51.074;13.764;2023-02-15T01:21:25;101494.75;;;0.29
43802;BMP280;29429;51.074;13.764;2023-02-15T01:23:53;101485.72;;;0.21
43802;BMP280;29429;51.074;13.764;2023-02-15T01:26:21;101493.94;;;0.29
43802;BMP280;29429;51.074;13.764;2023-02-15T01:28:48;101486.81;;;0.31
43802;BMP280;29429;51.074;13.764;2023-02-15T01:31:19;101488.50;;;0.32
43802;BMP280;29429;51.074;13.764;2023-02-15T01:33:47;101493.94;;;0.29
43802;BMP280;29429;51.074;13.764;2023-02-15T01:36:14;101483.72;;;0.24
43802;BMP280;29429;51.074;13.764;2023-02-15T01:38:44;101479.69;;;0.19
43802;BMP280;29429;51.074;13.764;2023-02-15T01:41:12;101478.75;;;0.20
43802;BMP280;29429;51.074;13.764;2023-02-15T01:43:55;101475.22;;;0.21
43802;BMP280;29429;51.074;13.764;2023-02-15T01:46:36;101472.28;;;0.25
43802;BMP280;29429;51.074;13.764;2023-02-15T01:49:16;101462.84;;;0.23
43802;BMP280;29429;51.074;13.764;2023-02-15T01:51:48;101459.47;;;0.21
43802;BMP280;29429;51.074;13.764;2023-02-15T01:54:32;101463.75;;;0.22
43802;BMP280;29429;51.074;13.764;2023-02-15T01:57:09;101454.41;;;0.18
43802;BMP280;29429;51.074;13.764;2023-02-15T01:59:39;101447.47;;;0.17
43802;BMP280;29429;51.074;13.764;2023-02-15T02:02:11;101438.88;;;0.15
43802;BMP280;29429;51.074;13.764;2023-02-15T02:04:48;101442.63;;;0.11
43802;BMP280;29429;51.074;13.764;2023-02-15T02:07:22;101446.84;;;0.13
43802;BMP280;29429;51.074;13.764;2023-02-15T02:09:59;101439.25;;;0.09
43802;BMP280;29429;51.074;13.764;2023-02-15T02:12:29;101428.13;;;0.05
43802;BMP280;29429;51.074;13.764;2023-02-15T02:14:56;101430.63;;;0.07
43802;BMP280;29429;51.074;13.764;2023-02-15T02:20:51;101427.91;;;0.08
43802;BMP280;29429;51.074;13.764;2023-02-15T02:27:29;101433.75;;;-0.01
43802;BMP280;29429;51.074;13.764;2023-02-15T02:30:16;101425.13;;;-0.03
43802;BMP280;29429;51.074;13.764;2023-02-15T02:35:56;101419.78;;;-0.02
43802;BMP280;29429;51.074;13.764;2023-02-15T02:44:34;101424.47;;;-0.07
43802;BMP280;29429;51.074;13.764;2023-02-15T02:47:26;101419.22;;;-0.07
43802;BMP280;29429;51.074;13.764;2023-02-15T02:50:02;101414.19;;;-0.10
43802;BMP280;29429;51.074;13.764;2023-02-15T02:52:44;101403.69;;;-0.10
43802;BMP280;29429;51.074;13.764;2023-02-15T02:55:21;101410.63;;;-0.09
43802;BMP280;29429;51.074;13.764;2023-02-15T03:01:10;101414.19;;;-0.10
43802;BMP280;29429;51.074;13.764;2023-02-15T03:03:56;101404.28;;;-0.19
43802;BMP280;29429;51.074;13.764;2023-02-15T03:06:46;101406.91;;;-0.19
43802;BMP280;29429;51.074;13.764;2023-02-15T03:09:30;101410.25;;;-0.17
43802;BMP280;29429;51.074;13.764;2023-02-15T03:12:02;101413.25;;;-0.23
43802;BMP280;29429;51.074;13.764;2023-02-15T03:14:40;101396.22;;;-0.30
43802;BMP280;29429;51.074;13.764;2023-02-15T03:17:12;101411.28;;;-0.19
43802;BMP280;29429;51.074;13.764;2023-02-15T03:19:45;101412.03;;;-0.17
43802;BMP280;29429;51.074;13.764;2023-02-15T03:22:21;101409.59;;;-0.20
43802;BMP280;29429;51.074;13.764;2023-02-15T03:27:54;101411.28;;;-0.19
43802;BMP280;29429;51.074;13.764;2023-02-15T03:30:24;101394.91;;;-0.23
43802;BMP280;29429;51.074;13.764;2023-02-15T03:32:56;101408.56;;;-0.18
43802;BMP280;29429;51.074;13.764;2023-02-15T03:35:35;101391.00;;;-0.30
43802;BMP280;29429;51.074;13.764;2023-02-15T03:38:07;101400.81;;;-0.19
43802;BMP280;29429;51.074;13.764;2023-02-15T03:40:44;101402.75;;;-0.23
43802;BMP280;29429;51.074;13.764;2023-02-15T03:43:52;101413.91;;;-0.19
43802;BMP280;29429;51.074;13.764;2023-02-15T03:51:50;101399.59;;;-0.28
43802;BMP280;29429;51.074;13.764;2023-02-15T03:58:52;101389.88;;;-0.40
43802;BMP280;29429;51.074;13.764;2023-02-15T04:02:05;101396.34;;;-0.45
43802;BMP280;29429;51.074;13.764;2023-02-15T04:04:47;101392.13;;;-0.48
43802;BMP280;29429;51.074;13.764;2023-02-15T04:07:19;101393.97;;;-0.50
43802;BMP280;29429;51.074;13.764;2023-02-15T04:09:46;101385.28;;;-0.50
43802;BMP280;29429;51.074;13.764;2023-02-15T04:12:32;101391.47;;;-0.51
43802;BMP280;29429;51.074;13.764;2023-02-15T04:14:59;101387.25;;;-0.54
43802;BMP280;29429;51.074;13.764;2023-02-15T04:17:44;101393.97;;;-0.50
43802;BMP280;29429;51.074;13.764;2023-02-15T04:20:11;101389.69;;;-0.51
43802;BMP280;29429;51.074;13.764;2023-02-15T04:22:57;101396.78;;;-0.53
43802;BMP280;29429;51.074;13.764;2023-02-15T04:26:08;101395.84;;;-0.52
43802;BMP280;29429;51.074;13.764;2023-02-15T04:28:38;101398.28;;;-0.49
43802;BMP280;29429;51.074;13.764;2023-02-15T05:41:37;101360.69;;;-0.48
43802;BMP280;29429;51.074;13.764;2023-02-15T05:44:04;101354.78;;;-0.51
43802;BMP280;29429;51.074;13.764;2023-02-15T05:46:31;101364.97;;;-0.47
43802;BMP280;29429;51.074;13.764;2023-02-15T05:48:58;101362.34;;;-0.47
43802;BMP280;29429;51.074;13.764;2023-02-15T05:51:25;101358.81;;;-0.46
43802;BMP280;29429;51.074;13.764;2023-02-15T05:53:52;101366.38;;;-0.41
43802;BMP280;29429;51.074;13.764;2023-02-15T05:56:19;101360.28;;;-0.42
43802;BMP280;29429;51.074;13.764;2023-02-15T05:58:46;101367.03;;;-0.38
43802;BMP280;29429;51.074;13.764;2023-02-15T06:01:18;101366.06;;;-0.37
43802;BMP280;29429;51.074;13.764;2023-02-15T06:03:47;101363.69;;;-0.40
43802;BMP280;29429;51.074;13.764;2023-02-15T06:06:15;101367.88;;;-0.37
43802;BMP280;29429;51.074;13.764;2023-02-15T06:08:42;101368.63;;;-0.35
43802;BMP280;29429;51.074;13.764;2023-02-15T06:11:09;101370.03;;;-0.30
43802;BMP280;29429;51.074;13.764;2023-02-15T06:13:43;101364.59;;;-0.27
43802;BMP280;29429;51.074;13.764;2023-02-15T09:18:24;101236.28;;;4.90
43802;BMP280;29429;51.074;13.764;2023-02-15T09:20:52;101211.81;;;4.88
43802;BMP280;29429;51.074;13.764;2023-02-15T09:23:22;101227.03;;;5.06
43802;BMP280;29429;51.074;13.764;2023-02-15T09:27:15;101240.59;;;5.22
43802;BMP280;29429;51.074;13.764;2023-02-15T09:29:44;101228.78;;;5.26
43802;BMP280;29429;51.074;13.764;2023-02-15T09:32:15;101215.84;;;5.23
43802;BMP280;29429;51.074;13.764;2023-02-15T09:34:48;101220.50;;;5.40
43802;BMP280;29429;51.074;13.764;2023-02-15T09:37:15;101217.03;;;5.49
43802;BMP280;29429;51.074;13.764;2023-02-15T09:39:56;101205.31;;;5.51
43802;BMP280;29429;51.074;13.764;2023-02-15T09:57:41;101210.59;;;6.01
43802;BMP280;29429;51.074;13.764;2023-02-15T10:06:31;101214.19;;;6.29
43802;BMP280;29429;51.074;13.764;2023-02-15T10:25:43;101192.94;;;6.67
43802;BMP280;29429;51.074;13.764;2023-02-15T10:28:27;101186.06;;;6.74
43802;BMP280;29429;51.074;13.764;2023-02-15T10:33:42;101178.50;;;6.79
43802;BMP280;29429;51.074;13.764;2023-02-15T10:46:03;101153.56;;;6.99
43802;BMP280;29429;51.074;13.764;2023-02-15T11:00:47;101144.03;;;7.33
43802;BMP280;29429;51.074;13.764;2023-02-15T11:06:11;101138.38;;;7.46
43802;BMP280;29429;51.074;13.764;2023-02-15T11:08:44;101136.94;;;7.52
43802;BMP280;29429;51.074;13.764;2023-02-15T11:11:22;101124.72;;;7.59
43802;BMP280;29429;51.074;13.764;2023-02-15T11:14:00;101113.81;;;7.62
43802;BMP280;29429;51.074;13.764;2023-02-15T11:16:43;101127.16;;;7.70
43802;BMP280;29429;51.074;13.764;2023-02-15T11:19:21;101119.56;;;7.75
43802;BMP280;29429;51.074;13.764;2023-02-15T11:21:55;101116.91;;;7.75
43802;BMP280;29429;51.074;13.764;2023-02-15T11:24:29;101110.59;;;7.76
43802;BMP280;29429;51.074;13.764;2023-02-15T11:32:25;101108.72;;;7.86
43802;BMP280;29429;51.074;13.764;2023-02-15T11:35:20;101111.19;;;7.87
43802;BMP280;29429;51.074;13.764;2023-02-15T11:38:17;101110.72;;;7.92
43802;BMP280;29429;51.074;13.764;2023-02-15T11:40:53;101107.47;;;7.98
43802;BMP280;29429;51.074;13.764;2023-02-15T11:43:46;101100.88;;;8.02
43802;BMP280;29429;51.074;13.764;2023-02-15T11:46:16;101096.91;;;8.06
43802;BMP280;29429;51.074;13.764;2023-02-15T11:48:45;101089.28;;;8.11
43802;BMP280;29429;51.074;13.764;2023-02-15T11:51:17;101087.31;;;8.13
43802;BMP280;29429;51.074;13.764;2023-02-15T11:53:47;101090.03;;;8.21
43802;BMP280;29429;51.074;13.764;2023-02-15T11:56:17;101089.72;;;8.24
43802;BMP280;29429;51.074;13.764;2023-02-15T11:59:10;101083.56;;;8.24
43802;BMP280;29429;51.074;13.764;2023-02-15T12:01:43;101079.09;;;8.24
43802;BMP280;29429;51.074;13.764;2023-02-15T12:04:30;101082.13;;;8.29
43802;BMP280;29429;51.074;13.764;2023-02-15T12:12:40;101065.22;;;8.30
43802;BMP280;29429;51.074;13.764;2023-02-15T12:15:11;101071.56;;;8.37
43802;BMP280;29429;51.074;13.764;2023-02-15T12:17:50;101073.91;;;8.40
43802;BMP280;29429;51.074;13.764;2023-02-15T12:22:59;101064.09;;;8.41
43802;BMP280;29429;51.074;13.764;2023-02-15T12:25:53;101065.28;;;8.46
43802;BMP280;29429;51.074;13.764;2023-02-15T12:28:34;101059.66;;;8.49
43802;BMP280;29429;51.074;13.764;2023-02-15T12:31:23;101051.69;;;8.49
43802;BMP280;29429;51.074;13.764;2023-02-15T12:33:55;101063.66;;;8.53
43802;BMP280;29429;51.074;13.764;2023-02-15T12:36:41;101049.38;;;8.54
43802;BMP280;29429;51.074;13.764;2023-02-15T12:42:40;101039.06;;;8.51
43802;BMP280;29429;51.074;13.764;2023-02-15T12:45:03;101040.72;;;8.52
43802;BMP280;29429;51.074;13.764;2023-02-15T12:47:31;101031.75;;;8.53
43802;BMP280;29429;51.074;13.764;2023-02-15T12:50:23;101023.97;;;8.60
43802;BMP280;29429;51.074;13.764;2023-02-15T12:53:17;101028.81;;;8.65
43802;BMP280;29429;51.074;13.764;2023-02-15T12:56:03;101025.50;;;8.63
43802;BMP280;29429;51.074;13.764;2023-02-15T12:58:37;101015.84;;;8.62
43802;BMP280;29429;51.074;13.764;2023-02-15T13:01:15;101021.34;;;8.68
43802;BMP280;29429;51.074;13.764;2023-02-15T13:04:08;101025.16;;;8.66
43802;BMP280;29429;51.074;13.764;2023-02-15T13:06:49;101023.53;;;8.73
43802;BMP280;29429;51.074;13.764;2023-02-15T13:14:48;101016.88;;;8.77
43802;BMP280;29429;51.074;13.764;2023-02-15T13:17:33;101015.72;;;8.79
43802;BMP280;29429;51.074;13.764;2023-02-15T13:20:09;101012.56;;;8.76
43802;BMP280;29429;51.074;13.764;2023-02-15T13:22:46;101005.88;;;8.72
43802;BMP280;29429;51.074;13.764;2023-02-15T13:25:24;101006.56;;;8.74
43802;BMP280;29429;51.074;13.764;2023-02-15T13:27:57;101011.88;;;8.74
43802;BMP280;29429;51.074;13.764;2023-02-15T13:30:37;101008.06;;;8.68
43802;BMP280;29429;51.074;13.764;2023-02-15T13:41:25;101014.38;;;8.75
43802;BMP280;29429;51.074;13.764;2023-02-15T13:44:40;101013.19;;;8.70
43802;BMP280;29429;51.074;13.764;2023-02-15T14:00:08;101021.69;;;8.73
43802;BMP280;29429;51.074;13.764;2023-02-15T14:09:20;101018.16;;;8.65
43802;BMP280;29429;51.074;13.764;2023-02-15T14:12:27;101014.84;;;8.63
43802;BMP280;29429;51.074;13.764;2023-02-15T14:32:41;100999.78;;;8.37
43802;BMP280;29429;51.074;13.764;2023-02-15T14:35:18;100998.75;;;8.30
43802;BMP280;29429;51.074;13.764;2023-02-15T14:38:00;101004.38;;;8.27
43802;BMP280;29429;51.074;13.764;2023-02-15T14:40:57;101012.28;;;8.19
43802;BMP280;29429;51.074;13.764;2023-02-15T14:44:19;101003.97;;;8.14
43802;BMP280;29429;51.074;13.764;2023-02-15T14:47:01;101018.88;;;8.07
43802;BMP280;29429;51.074;13.764;2023-02-15T14:49:36;101009.84;;;8.00
43802;BMP280;29429;51.074;13.764;2023-02-15T14:52:08;101012.13;;;7.95
43802;BMP280;29429;51.074;13.764;2023-02-15T15:04:41;101015.63;;;7.70
43802;BMP280;29429;51.074;13.764;2023-02-15T15:09:41;101002.38;;;7.52
43802;BMP280;29429;51.074;13.764;2023-02-15T15:14:52;101017.41;;;7.44
43802;BMP280;29429;51.074;13.764;2023-02-15T15:20:13;101022.28;;;7.30
43802;BMP280;29429;51.074;13.764;2023-02-15T15:22:43;101019.69;;;7.21
43802;BMP280;29429;51.074;13.764;2023-02-15T15:28:02;101004.75;;;7.02
43802;BMP280;29429;51.074;13.764;2023-02-15T15:34:03;101013.75;;;6.92
43802;BMP280;29429;51.074;13.764;2023-02-15T15:37:16;101009.94;;;6.77
43802;BMP280;29429;51.074;13.764;2023-02-15T15:43:19;101010.22;;;6.56
43802;BMP280;29429;51.074;13.764;2023-02-15T15:49:15;101008.34;;;6.39
43802;BMP280;29429;51.074;13.764;2023-02-15T15:51:46;101001.28;;;6.30
43802;BMP280;29429;51.074;13.764;2023-02-15T15:54:20;101004.06;;;6.28
43802;BMP280;29429;51.074;13.764;2023-02-15T15:57:04;101008.41;;;6.20
43802;BMP280;29429;51.074;13.764;2023-02-15T15:59:34;100996.34;;;6.07
43802;BMP280;29429;51.074;13.764;2023-02-15T16:02:07;100987.03;;;6.03
43802;BMP280;29429;51.074;13.764;2023-02-15T16:04:37;101001.53;;;5.99
43802;BMP280;29429;51.074;13.764;2023-02-15T16:10:06;101000.41;;;5.83
43802;BMP280;29429;51.074;13.764;2023-02-15T16:12:37;100990.28;;;5.69
43802;BMP280;29429;51.074;13.764;2023-02-15T16:15:19;100994.47;;;5.62
43802;BMP280;29429;51.074;13.764;2023-02-15T16:17:52;100996.47;;;5.50
43802;BMP280;29429;51.074;13.764;2023-02-15T16:20:26;100994.63;;;5.41
43802;BMP280;29429;51.074;13.764;2023-02-15T16:29:23;100997.88;;;5.16
43802;BMP280;29429;51.074;13.764;2023-02-15T16:32:16;101009.25;;;5.07
43802;BMP280;29429;51.074;13.764;2023-02-15T16:35:00;101001.03;;;4.90
43802;BMP280;29429;51.074;13.764;2023-02-15T16:37:34;101003.00;;;4.88
43802;BMP280;29429;51.074;13.764;2023-02-15T16:40:04;100994.47;;;4.75
43802;BMP280;29429;51.074;13.764;2023-02-15T16:42:31;100996.13;;;4.67
43802;BMP280;29429;51.074;13.764;2023-02-15T16:45:12;101011.72;;;4.70
43802;BMP280;29429;51.074;13.764;2023-02-15T16:47:44;101008.34;;;4.58
43802;BMP280;29429;51.074;13.764;2023-02-15T16:50:28;101010.13;;;4.48
43802;BMP280;29429;51.074;13.764;2023-02-15T16:52:57;101015.38;;;4.39
43802;BMP280;29429;51.074;13.764;2023-02-15T16:55:36;101009.00;;;4.41
43802;BMP280;29429;51.074;13.764;2023-02-15T16:58:06;101010.22;;;4.37
43802;BMP280;29429;51.074;13.764;2023-02-15T17:00:37;100996.16;;;4.27
43802;BMP280;29429;51.074;13.764;2023-02-15T17:05:47;101005.69;;;4.18
43802;BMP280;29429;51.074;13.764;2023-02-15T17:13:36;101001.16;;;4.00
43802;BMP280;29429;51.074;13.764;2023-02-15T17:18:53;100990.97;;;3.86
43802;BMP280;29429;51.074;13.764;2023-02-15T17:21:55;101002.47;;;3.85
43802;BMP280;29429;51.074;13.764;2023-02-15T17:27:19;100998.72;;;3.78
43802;BMP280;29429;51.074;13.764;2023-02-15T17:29:57;101001.59;;;3.75
43802;BMP280;29429;51.074;13.764;2023-02-15T17:32:27;100993.94;;;3.72
43802;BMP280;29429;51.074;13.764;2023-02-15T17:35:23;100991.81;;;3.65
43802;BMP280;29429;51.074;13.764;2023-02-15T17:38:16;100987.06;;;3.59
43802;BMP280;29429;51.074;13.764;2023-02-15T17:40:44;100985.91;;;3.52
43802;BMP280;29429;51.074;13.764;2023-02-15T17:43:11;100998.97;;;3.54
43802;BMP280;29429;51.074;13.764;2023-02-15T17:45:50;100988.53;;;3.52
43802;BMP280;29429;51.074;13.764;2023-02-15T17:48:30;100980.81;;;3.40
43802;BMP280;29429;51.074;13.764;2023-02-15T17:51:03;100999.88;;;3.43
43802;BMP280;29429;51.074;13.764;2023-02-15T17:53:32;100982.88;;;3.36
43802;BMP280;29429;51.074;13.764;2023-02-15T17:56:00;100984.09;;;3.32
43802;BMP280;29429;51.074;13.764;2023-02-15T17:58:40;100989.97;;;3.36
43802;BMP280;29429;51.074;13.764;2023-02-15T18:01:17;100984.09;;;3.32
43802;BMP280;29429;51.074;13.764;2023-02-15T18:04:07;101008.28;;;3.37
43802;BMP280;29429;51.074;13.764;2023-02-15T18:06:55;100987.38;;;3.25
43802;BMP280;29429;51.074;13.764;2023-02-15T18:09:41;101005.34;;;3.31
43802;BMP280;29429;51.074;13.764;2023-02-15T18:12:30;100986.78;;;3.21
43802;BMP280;29429;51.074;13.764;2023-02-15T18:14:58;101000.31;;;3.28
43802;BMP280;29429;51.074;13.764;2023-02-15T18:17:34;100993.59;;;3.24
43802;BMP280;29429;51.074;13.764;2023-02-15T18:20:06;100991.00;;;3.13
43802;BMP280;29429;51.074;13.764;2023-02-15T18:22:50;100979.69;;;3.01
43802;BMP280;29429;51.074;13.764;2023-02-15T18:25:21;100987.59;;;3.01
43802;BMP280;29429;51.074;13.764;2023-02-15T18:27:51;100996.59;;;2.98
43802;BMP280;29429;51.074;13.764;2023-02-15T18:30:23;100988.34;;;2.92
43802;BMP280;29429;51.074;13.764;2023-02-15T18:32:55;100983.47;;;2.87
43802;BMP280;29429;51.074;13.764;2023-02-15T18:35:27;100966.34;;;2.82
43802;BMP280;29429;51.074;13.764;2023-02-15T18:37:55;100973.56;;;2.80
43802;BMP280;29429;51.074;13.764;2023-02-15T18:40:27;100988.59;;;2.89
43802;BMP280;29429;51.074;13.764;2023-02-15T18:42:54;100994.69;;;2.89
43802;BMP280;29429;51.074;13.764;2023-02-15T18:45:28;100996.00;;;2.95
43802;BMP280;29429;51.074;13.764;2023-02-15T18:47:59;100985.16;;;2.88
43802;BMP280;29429;51.074;13.764;2023-02-15T18:50:32;100986.22;;;2.86
43802;BMP280;29429;51.074;13.764;2023-02-15T18:53:03;100983.94;;;2.81
43802;BMP280;29429;51.074;13.764;2023-02-15T18:55:31;100987.44;;;2.82
43802;BMP280;29429;51.074;13.764;2023-02-15T18:58:00;100988.38;;;2.81
43802;BMP280;29429;51.074;13.764;2023-02-15T19:00:33;100980.59;;;2.79
43802;BMP280;29429;51.074;13.764;2023-02-15T19:03:02;101000.22;;;2.86
43802;BMP280;29429;51.074;13.764;2023-02-15T19:05:31;100995.09;;;2.85
43802;BMP280;29429;51.074;13.764;2023-02-15T19:08:01;100996.03;;;2.84
43802;BMP280;29429;51.074;13.764;2023-02-15T19:10:31;100992.56;;;2.83
43802;BMP280;29429;51.074;13.764;2023-02-15T19:12:59;100994.94;;;2.86
43802;BMP280;29429;51.074;13.764;2023-02-15T19:15:29;100980.59;;;2.79
43802;BMP280;29429;51.074;13.764;2023-02-15T19:18:02;100983.09;;;2.81
43802;BMP280;29429;51.074;13.764;2023-02-15T19:20:39;100980.00;;;2.76
43802;BMP280;29429;51.074;13.764;2023-02-15T19:23:20;100989.97;;;2.72
43802;BMP280;29429;51.074;13.764;2023-02-15T19:25:53;100978.84;;;2.69
43802;BMP280;29429;51.074;13.764;2023-02-15T19:28:32;100985.41;;;2.74
43802;BMP280;29429;51.074;13.764;2023-02-15T19:30:59;100976.34;;;2.67
43802;BMP280;29429;51.074;13.764;2023-02-15T19:33:30;100965.47;;;2.61
43802;BMP280;29429;51.074;13.764;2023-02-15T19:35:58;100958.78;;;2.57
43802;BMP280;29429;51.074;13.764;2023-02-15T19:38:34;100974.91;;;2.63
43802;BMP280;29429;51.074;13.764;2023-02-15T19:41:08;100962.69;;;2.62
43802;BMP280;29429;51.074;13.764;2023-02-15T19:43:49;100953.25;;;2.60
43802;BMP280;29429;51.074;13.764;2023-02-15T19:46:22;100966.06;;;2.64
43802;BMP280;29429;51.074;13.764;2023-02-15T19:48:52;100972.72;;;2.68
43802;BMP280;29429;51.074;13.764;2023-02-15T19:51:22;100962.34;;;2.67
43802;BMP280;29429;51.074;13.764;2023-02-15T19:53:50;100951.44;;;2.60
43802;BMP280;29429;51.074;13.764;2023-02-15T19:56:21;100953.00;;;2.63
43802;BMP280;29429;51.074;13.764;2023-02-15T19:58:53;100943.00;;;2.45
43802;BMP280;29429;51.074;13.764;2023-02-15T20:01:25;100941.78;;;2.50
43802;BMP280;29429;51.074;13.764;2023-02-15T20:03:58;100951.97;;;2.54
43802;BMP280;29429;51.074;13.764;2023-02-15T20:06:32;100939.84;;;2.52
43802;BMP280;29429;51.074;13.764;2023-02-15T20:09:03;100939.13;;;2.61
43802;BMP280;29429;51.074;13.764;2023-02-15T20:11:33;100943.31;;;2.63
43802;BMP280;29429;51.074;13.764;2023-02-15T20:14:01;100938.19;;;2.62
43802;BMP280;29429;51.074;13.764;2023-02-15T20:16:28;100933.38;;;2.67
43802;BMP280;29429;51.074;13.764;2023-02-15T20:18:56;100929.06;;;2.66
43802;BMP280;29429;51.074;13.764;2023-02-15T20:21:26;100931.69;;;2.66
43802;BMP280;29429;51.074;13.764;2023-02-15T20:23:56;100921.16;;;2.66
43802;BMP280;29429;51.074;13.764;2023-02-15T20:26:25;100927.97;;;2.68
43802;BMP280;29429;51.074;13.764;2023-02-15T20:28:56;100927.34;;;2.76
43802;BMP280;29429;51.074;13.764;2023-02-15T20:31:23;100924.59;;;2.77
43802;BMP280;29429;51.074;13.764;2023-02-15T20:33:52;100916.31;;;2.82
43802;BMP280;29429;51.074;13.764;2023-02-15T20:36:20;100916.31;;;2.82
43802;BMP280;29429;51.074;13.764;2023-02-15T20:57:37;100918.31;;;2.58
43802;BMP280;29429;51.074;13.764;2023-02-15T21:20:31;100920.28;;;2.33
43802;BMP280;29429;51.074;13.764;2023-02-15T21:42:26;100903.13;;;2.07
43802;BMP280;29429;51.074;13.764;2023-02-15T21:45:17;100899.53;;;2.08
43802;BMP280;29429;51.074;13.764;2023-02-15T21:48:03;100898.94;;;2.05
43802;BMP280;29429;51.074;13.764;2023-02-15T21:50:31;100885.91;;;2.03
43802;BMP280;29429;51.074;13.764;2023-02-15T21:53:24;100898.34;;;2.01
43802;BMP280;29429;51.074;13.764;2023-02-15T21:55:58;100898.09;;;2.04
43802;BMP280;29429;51.074;13.764;2023-02-15T21:58:29;100910.06;;;2.08
43802;BMP280;29429;51.074;13.764;2023-02-15T22:00:59;100899.16;;;2.02
43802;BMP280;29429;51.074;13.764;2023-02-15T22:03:35;100899.53;;;2.08
43802;BMP280;29429;51.074;13.764;2023-02-15T22:06:04;100901.69;;;2.03
43802;BMP280;29429;51.074;13.764;2023-02-15T22:08:31;100891.66;;;1.97
43802;BMP280;29429;51.074;13.764;2023-02-15T22:10:59;100896.44;;;2.03
43802;BMP280;29429;51.074;13.764;2023-02-15T22:13:31;100887.00;;;2.01
43802;BMP280;29429;51.074;13.764;2023-02-15T22:16:01;100881.84;;;1.99
43802;BMP280;29429;51.074;13.764;2023-02-15T22:18:32;100877.56;;;1.98
43802;BMP280;29429;51.074;13.764;2023-02-15T22:21:01;100886.16;;;2.00
43802;BMP280;29429;51.074;13.764;2023-02-15T22:23:29;100889.50;;;2.02
43802;BMP280;29429;51.074;13.764;2023-02-15T22:26:27;100884.22;;;2.02
43802;BMP280;29429;51.074;13.764;2023-02-15T22:28:56;100875.72;;;1.99
43802;BMP280;29429;51.074;13.764;2023-02-15T22:31:23;100878.88;;;2.04
43802;BMP280;29429;51.074;13.764;2023-02-15T22:33:50;100884.00;;;2.05
43802;BMP280;29429;51.074;13.764;2023-02-15T22:36:25;100883.03;;;2.06
43802;BMP280;29429;51.074;13.764;2023-02-15T22:38:53;100891.88;;;2.05
43802;BMP280;29429;51.074;13.764;2023-02-15T22:41:26;100892.59;;;2.07
43802;BMP280;29429;51.074;13.764;2023-02-15T22:43:55;100890.94;;;2.06
43802;BMP280;29429;51.074;13.764;2023-02-15T22:46:23;100890.19;;;2.04
43802;BMP280;29429;51.074;13.764;2023-02-15T22:48:52;100899.78;;;2.05
43802;BMP280;29429;51.074;13.764;2023-02-15T22:51:22;100898.47;;;2.00
43802;BMP280;29429;51.074;13.764;2023-02-15T22:53:51;100901.00;;;2.01
43802;BMP280;29429;51.074;13.764;2023-02-15T22:56:26;100891.50;;;1.99
43802;BMP280;29429;51.074;13.764;2023-02-15T22:59:14;100895.13;;;1.98
43802;BMP280;29429;51.074;13.764;2023-02-15T23:01:42;100886.28;;;1.88
43802;BMP280;29429;51.074;13.764;2023-02-15T23:04:22;100894.88;;;1.90
43802;BMP280;29429;51.074;13.764;2023-02-15T23:06:49;100882.81;;;1.87
43802;BMP280;29429;51.074;13.764;2023-02-15T23:09:20;100897.38;;;1.91
43802;BMP280;29429;51.074;13.764;2023-02-15T23:11:48;100893.44;;;1.85
43802;BMP280;29429;51.074;13.764;2023-02-15T23:14:31;100898.00;;;1.83
43802;BMP280;29429;51.074;13.764;2023-02-15T23:16:59;100898.72;;;1.85
43802;BMP280;29429;51.074;13.764;2023-02-15T23:19:30;100894.06;;;1.78
43802;BMP280;29429;51.074;13.764;2023-02-15T23:21:57;100900.28;;;1.77
43802;BMP280;29429;51.074;13.764;2023-02-15T23:24:29;100894.19;;;1.76
43802;BMP280;29429;51.074;13.764;2023-02-15T23:27:00;100903.38;;;1.82